Webcam op het Zuiden Meer informatie Webcam op het Zuiden


Webcam op het Westen Meer informatie Webcam op het Westen


Onweer radar Meer informatie blitzortung!


Regen radar  rain snow radar


Lokaal brand risico:
CBI


Regionaal brand risico: Meer informatie


Lokaal brand risico:
Gebaseerd op actuele waarde
CBI


Bezoek ook deze websites:

Template documentation
and downloads

And another site



Het weer levert geen direct gevaar op.    Er zijn geen waarschuwingen afgegeven.

METAR rapporten vliegvelden

   
ETWM - Meppen, Germany
Afstand tot: O 29 km
Gewijzigd: 26-10-2020 22:20
  
  
   Wind: ZZW 13 km/h
Wind: ZZW 13 km/h
Temperatuur: 9°C
Voelt als: 7°C
Dauwpunt: 6°C
Vochtigheid: 82%
Barometer: 1001 hPa
ETWM 262120Z AUTO 20007KT //// // ////// 09/06 Q1001 ///
EHGG - Groningen/Eelde, Netherlands
Afstand tot: NNW 47 km
Gewijzigd: 26-10-2020 22:25
Light Showers, Regen, Grotendeels bewolkt  
Light Showers, Regen, Grotendeels bewolkt  
   Wind: Zuiden 22.2 km/h
Wind: Zuiden 22.2 km/h
Temperatuur: 9°C
Voelt als: 6°C
Dauwpunt: 7°C
Vochtigheid: 87%
Barometer: 999 hPa
Bewolking: Grotendeels bewolkt
Zicht: meer dan 10 km
Bewolking: Licht bewolkt 1500 ft,
Gedeeltelijk bewolkt 4400 ft,
Grotendeels bewolkt 4900 ft
EHGG 262125Z AUTO 19012KT 9999 -SHRA FEW015CB SCT044 BKN049 09/07 Q0999 TEMPO 7000 -SHRA RA SCT018CB BKN020
EDDG - Muenster/Osnabru, Germany
Afstand tot: ZO 87 km
Gewijzigd: 26-10-2020 22:50
Licht bewolkt  
Licht bewolkt  
   Wind: Zuiden 13 km/h
Wind: Zuiden 13 km/h
Temperatuur: 10°C
Voelt als: 8°C
Dauwpunt: 6°C
Vochtigheid: 76%
Barometer: 1002 hPa
Bewolking: Licht bewolkt
Zicht: meer dan 10 km
Bewolking: Licht bewolkt 3400 ft
EDDG 262150Z 19007KT 150V220 9999 FEW034 10/06 Q1002 NOSIG
EHLW - Leeuwarden Rnlaf, Netherlands
Afstand tot: NW 93 km
Gewijzigd: 26-10-2020 22:55
Gedeeltelijk bewolkt  
Gedeeltelijk bewolkt  
   Wind: Zuiden 16.7 km/h
Wind: Zuiden 16.7 km/h
Temperatuur: 8°C
Voelt als: 5°C
Dauwpunt: 7°C
Vochtigheid: 93%
Barometer: 998 hPa
Bewolking: Gedeeltelijk bewolkt
Zicht: meer dan 10 km
Bewolking: Licht bewolkt 2900 ft,
Gedeeltelijk bewolkt 16000 ft
EHLW 262155Z AUTO 19009KT 160V220 9999 FEW029 SCT160 08/07 Q0998 BLU
ETNT - Wittmundhaven(Ga, Germany
Afstand tot: NNO 100 km
Gewijzigd: 26-10-2020 22:20
  
  
   Wind: Zuiden 18.5 km/h
Wind: Zuiden 18.5 km/h
Temperatuur: 8°C
Voelt als: 5°C
Dauwpunt: 5°C
Vochtigheid: 82%
Barometer: 1000 hPa
Zicht: 8 km
ETNT 262120Z AUTO 18010KT 8000 // ////// 08/05 Q1000 ///
ETND - Diepholz (ger-Af, Germany
Afstand tot: O 104 km
Gewijzigd: 26-10-2020 15:20
Verouderd
Grotendeels bewolkt  
Grotendeels bewolkt  
   Wind: ZZW 18.5 km/h
Wind: ZZW 18.5 km/h
Temperatuur: 11°C
Dauwpunt: 7°C
Vochtigheid: 77%
Barometer: 1001 hPa
Bewolking: Grotendeels bewolkt
Zicht: meer dan 10 km
Bewolking: Licht bewolkt 3000 ft,
Grotendeels bewolkt 5000 ft,
Grotendeels bewolkt 23000 ft
ETND 261420Z 21010KT 9999 FEW030 BKN050 BKN230 11/07 Q1001 BLU
ETNT - Wittmundhaven(Ga, Germany
Afstand tot: NNO 102 km
Gewijzigd: 26-10-2020 22:20
  
  
   Wind: Zuiden 18.5 km/h
Wind: Zuiden 18.5 km/h
Temperatuur: 8°C
Voelt als: 5°C
Dauwpunt: 5°C
Vochtigheid: 82%
Barometer: 1000 hPa
Zicht: 8 km
ETNT 262120Z AUTO 18010KT 8000 // ////// 08/05 Q1000 ///
EHDL - Deelen Rnlafb, Netherlands
Afstand tot: ZW 103 km
Gewijzigd: 26-10-2020 22:55
Wat regen mogelijk, Bewolking  
Wat regen mogelijk, Bewolking  
   Wind: Zuiden 18.5 km/h
Wind: Zuiden 18.5 km/h
Temperatuur: 10°C
Voelt als: 8°C
Dauwpunt: 8°C
Vochtigheid: 88%
Barometer: 1001 hPa
Bewolking: Bewolking
Zicht: meer dan 10 km
Bewolking: Gedeeltelijk bewolkt 1900 ft,
Gedeeltelijk bewolkt 2200 ft,
Bewolking 4000 ft
EHDL 262155Z AUTO 19010KT 110V230 9999 -RA SCT019 SCT022 OVC040 10/08 Q1001 WHT
EHMA - Awg-1 Sea, Netherlands
Afstand tot: NW 105 km
Gewijzigd: 26-10-2020 22:55
Gedeeltelijk bewolkt  
Gedeeltelijk bewolkt  
   Wind: ZZW 46.3 km/h
Wind: ZZW 46.3 km/h
Temperatuur: 10°C
Voelt als: 6°C
Dauwpunt: 7°C
Vochtigheid: 82%
Barometer: 997 hPa
Bewolking: Gedeeltelijk bewolkt
Zicht: meer dan 10 km
Bewolking: Licht bewolkt 1500 ft,
Gedeeltelijk bewolkt 4200 ft
EHMA 262155Z AUTO 21025KT 170V250 9999 FEW015CB SCT042 10/07 Q0997
EDDW - Bremen, Germany
Afstand tot: ONO 135 km
Gewijzigd: 26-10-2020 22:50
Helder  
Helder  
   Wind: Zuiden 14.8 km/h
Wind: Zuiden 14.8 km/h
Temperatuur: 8°C
Voelt als: 6°C
Dauwpunt: 5°C
Vochtigheid: 82%
Barometer: 1002 hPa
Zicht: meer dan 10 km
Bewolking: Helder
EDDW 262150Z 18008KT CAVOK 08/05 Q1002
EHVL - Vlieland Island, Netherlands
Afstand tot: WNW 138 km
Gewijzigd: 26-10-2020 22:55
Bewolking  
Bewolking  
   Wind: Westen 33.3 km/h
Wind: Westen 33.3 km/h
Temperatuur: 12°C
Dauwpunt: 8°C
Vochtigheid: 77%
Bewolking: Bewolking
Zicht: meer dan 10 km
Bewolking: Licht bewolkt 2500 ft,
Gedeeltelijk bewolkt 3200 ft,
Bewolking 6100 ft
EHVL 262155Z AUTO 26018KT 9999 FEW025 SCT032 OVC061 12/08 Q//// BLU
EDLV - Niederrhein, Germany
Afstand tot: ZZW 139 km
Gewijzigd: 26-10-2020 22:50
Gedeeltelijk bewolkt  
Gedeeltelijk bewolkt  
   Wind: ZZW 16.7 km/h
Wind: ZZW 16.7 km/h
Temperatuur: 10°C
Voelt als: 8°C
Dauwpunt: 7°C
Vochtigheid: 82%
Barometer: 1002 hPa
Bewolking: Gedeeltelijk bewolkt
Zicht: meer dan 10 km
Bewolking: Gedeeltelijk bewolkt 3000 ft
EDLV 262150Z 20009KT 170V230 9999 SCT030 10/07 Q1002
EHKD - De Kooy (navy), Netherlands
Afstand tot: W 144 km
Gewijzigd: 26-10-2020 22:55
Grotendeels bewolkt  
Grotendeels bewolkt  
   Wind: ZW 16.7 km/h
Wind: ZW 16.7 km/h
Temperatuur: 11°C
Dauwpunt: 8°C
Vochtigheid: 82%
Barometer: 998 hPa
Bewolking: Grotendeels bewolkt
Zicht: meer dan 10 km
Bewolking: Licht bewolkt 1500 ft,
Grotendeels bewolkt 6100 ft
EHKD 262155Z AUTO 22009KT 200V260 9999 FEW015CB BKN061 11/08 Q0998 REDZ BLU
EDLW - Dortmund/Wickede, Germany
Afstand tot: ZZO 150 km
Gewijzigd: 26-10-2020 22:50
Grotendeels bewolkt  
Grotendeels bewolkt  
   Wind: ZZW 18.5 km/h
Wind: ZZW 18.5 km/h
Temperatuur: 10°C
Voelt als: 8°C
Dauwpunt: 5°C
Vochtigheid: 71%
Barometer: 1003 hPa
Bewolking: Grotendeels bewolkt
Zicht: meer dan 10 km
Bewolking: Grotendeels bewolkt 5700 ft
EDLW 262150Z AUTO 20010KT 9999 // BKN057/// 10/05 Q1003
EHVK - Volkel Rnlafb, Netherlands
Afstand tot: ZZW 149 km
Gewijzigd: 26-10-2020 22:55
Grotendeels bewolkt  
Grotendeels bewolkt  
   Wind: Zuiden 18.5 km/h
Wind: Zuiden 18.5 km/h
Temperatuur: 10°C
Voelt als: 8°C
Dauwpunt: 7°C
Vochtigheid: 82%
Barometer: 1002 hPa
Bewolking: Grotendeels bewolkt
Zicht: meer dan 10 km
Bewolking: Licht bewolkt 3200 ft,
Grotendeels bewolkt 4100 ft,
Grotendeels bewolkt 4800 ft
EHVK 262155Z AUTO 19010KT 160V230 9999 FEW032 BKN041 BKN048 10/07 Q1002 BLU
EDLW - Dortmund/Wickede, Germany
Afstand tot: ZZO 150 km
Gewijzigd: 26-10-2020 22:50
Grotendeels bewolkt  
Grotendeels bewolkt  
   Wind: ZZW 18.5 km/h
Wind: ZZW 18.5 km/h
Temperatuur: 10°C
Voelt als: 8°C
Dauwpunt: 5°C
Vochtigheid: 71%
Barometer: 1003 hPa
Bewolking: Grotendeels bewolkt
Zicht: meer dan 10 km
Bewolking: Grotendeels bewolkt 5700 ft
EDLW 262150Z AUTO 20010KT 9999 // BKN057/// 10/05 Q1003
EHMG - L9-Ff-1 Sea, Netherlands
Afstand tot: NW 155 km
Gewijzigd: 26-10-2020 22:55
Gedeeltelijk bewolkt  
Gedeeltelijk bewolkt  
   Wind: WZW 40.7 km/h
Wind: WZW 40.7 km/h
Temperatuur: 13°C
Dauwpunt: 7°C
Vochtigheid: 67%
Barometer: 997 hPa
Bewolking: Gedeeltelijk bewolkt
Zicht: meer dan 10 km
Bewolking: Licht bewolkt 2000 ft,
Gedeeltelijk bewolkt 3700 ft
EHMG 262155Z AUTO 24022KT 9999 FEW020 SCT037 13/07 Q0997
ETHB - Buckeburg(Ger-Ar, Germany
Afstand tot: OZO 161 km
Gewijzigd: 26-10-2020 22:20
Gedeeltelijk bewolkt  
Gedeeltelijk bewolkt  
   Wind: Zuiden 13 km/h
Wind: Zuiden 13 km/h
Temperatuur: 9°C
Voelt als: 7°C
Dauwpunt: 4°C
Vochtigheid: 71%
Barometer: 1003 hPa
Bewolking: Gedeeltelijk bewolkt
Zicht: meer dan 10 km
Bewolking: Gedeeltelijk bewolkt 5000 ft
ETHB 262120Z 19007KT 9999 SCT050 09/04 Q1003 BLU+BLU TEMPO BLU+
ETMN - Nordholz (ger-Na, Germany
Afstand tot: NO 164 km
Gewijzigd: 26-10-2020 22:20
Licht bewolkt  
Licht bewolkt  
   Wind: ZZW 16.7 km/h
Wind: ZZW 16.7 km/h
Temperatuur: 9°C
Voelt als: 7°C
Dauwpunt: 5°C
Vochtigheid: 76%
Barometer: 1000 hPa
Bewolking: Licht bewolkt
Zicht: meer dan 10 km
Bewolking: Licht bewolkt 6000 ft
ETMN 262120Z 20009KT 9999 FEW060 09/05 Q1000 BLU+
EDDL - Duesseldorf, Germany
Afstand tot: Z 165 km
Gewijzigd: 26-10-2020 22:50
Licht bewolkt  
Licht bewolkt  
   Wind: Zuiden 20.4 km/h
Wind: Zuiden 20.4 km/h
Temperatuur: 11°C
Dauwpunt: 6°C
Vochtigheid: 72%
Barometer: 1003 hPa
Bewolking: Licht bewolkt
Zicht: meer dan 10 km
Bewolking: Licht bewolkt 4000 ft
EDDL 262150Z 19011KT 9999 FEW040 11/06 Q1003 NOSIG
EDLN - Monchengladbach, Germany
Afstand tot: Z 174 km
Gewijzigd: 26-10-2020 22:50
Grotendeels bewolkt  
Grotendeels bewolkt  
   Wind: ZZW 16.7 km/h
Wind: ZZW 16.7 km/h
Temperatuur: 11°C
Dauwpunt: 6°C
Vochtigheid: 72%
Barometer: 1003 hPa
Bewolking: Grotendeels bewolkt
Zicht: meer dan 10 km
Bewolking: Gedeeltelijk bewolkt 5900 ft,
Grotendeels bewolkt 6800 ft
EDLN 262150Z AUTO 21009KT 190V250 9999 // SCT059/// BKN068/// 11/06 Q1003

Script ontwikkeld door  Saratoga-weather.org Aangepast voor de template door  Weerstation Leuven

U vindt ons ook hier:

Het Weer Aktueel

European Weather Network

Weather Underground

Wetterpage 24

Apparatuur in gebruik:

Weerstation
Davis VP2

Weerprogramma
Meteohub

Hardware
RaspberryPI, Wireless Weather Envoy, MeteoStick, TP-Link MR3020

Leverancier
Weerhuisje.nl weerstations

Davis VP2

Meteohub

RaspberryPI, Wireless Weather Envoy, MeteoStick, TP-Link MR3020

Weerhuisje.nl weerstations